Aviation Digital Data Service (ADDS)

Output produced by METARs form (1737 UTC 16 June 2019)
found at http://www.aviationweather.gov/metar/data/
 
OAIX 161658Z 34015G21KT 9999 CLR 25/M03 A2987 RMK AO2A PK WND 34030/16 SLP025 T02461029
TAF OAIX 161500Z 1615/1721 35015G25KT 9999 FEW120 520009 QNH2981INS 
     TEMPO 1615/1616 36025G35KT 530009 
     BECMG 1615/1616 36015G25KT 9999 FEW120 520009 QNH2989INS 
     TEMPO 1616/1620 36015G30KT 
     BECMG 1621/1622 34012G18KT 9999 SKC QNH2984INS 
     BECMG 1704/1705 34015G25KT 9999 FEW120 520009 QNH2974INS 
     TEMPO 1711/1716 35025G35KT 530009 TX32/1710Z TN18/1700Z
       
OAHR 161730Z 03006G15KT CAVOK 27/01 Q1013 RMK CLOSED A2993 BLU
TAF OAHR 161700Z 1618/1718 03008G16KT CAVOK 
     BECMG 1619/1621 03008KT 
     BECMG 1623/1701 VRB03KT 
     BECMG 1706/1708 03015G25KT 
     BECMG 1716/1718 02008KT
       
OAJL 161455Z 00000KT 8000 HZ CLR 34/07 A2952 RMK AO2A SLP955 T03050109 55001
TAF OAJL 161600Z 1616/1722 VRB06KT 9999 SKC QNH2945INS 
     BECMG 1709/1710 31010G15KT 9999 SKC QNH2942INS 
     BECMG 1714/1715 VRB06KT 9999 SKC QNH2951INS TX41/1710Z TN22/1700Z
       
OAKB 161650Z 02020G32KT 330V060 CAVOK 24/M05 Q1014 NOSIG RMK A2996 BLU BLU
TAF OAKB 161705Z 1618/1718 02015G25KT CAVOK 
     TEMPO 1618/1620 06020G35KT 
     BECMG 1620/1622 36012KT 
     BECMG 1708/1710 01015G25KT FEW100 
     TEMPO 1712/1716 02020G35KT
       
OAKN 161656Z 27004KT 9999 CLR 29/M01 A2970 RMK AO2A SLP960 WND DATA ESTMD Q1006 PA3503 DA5902 T02881014
TAF OAKN 161500Z 1615/1721 VRB06KT 9999 SKC QNH2965INS 
     BECMG 1622/1623 05009KT 8000 HZ SKC QNH2969INS 
     BECMG 1705/1706 27009KT 9000 HZ SKC QNH2959INS 
     TEMPO 1710/1713 30012G18KT TX39/1711Z TN20/1701Z
       
OAMS 161650Z 23004KT 9999 SKC 32/02 Q1008 BLU+BLU+
TAF OAMS 161705Z 1618/1718 22006KT 9999 NSW SKC 
     BECMG 1620/1622 VRB03KT 9000 NSW SKC 
     BECMG 1701/1703 30012KT 9999 NSW FEW070